Aérodrome :
LOGIN :

S'inscrire | Disclaimer

   EN    FR    IT 

 










Légende :    VFR   VFR Marginal   IFR   IFR Intensif   IFR Très Intensif
Visi : 
Plafond : 
>= 8 km
>= 3000ft
5 à 8 km
1000 à 3000 ft
1500m à 5 km
500 à 1000 ft
800 à 1500m
200 à 500 ft
< 800m
< 200 ft
Symboles :   Orages  Brouillard  Fortes neiges  Fortes précipitations  Vent > 20 kt
SIGMETs :   Divers  Orages  Givrage  Turbulence  Onde Orograph.  Cendres Volcan.






- Altitude de l'aérodrome : -13 ft
- Code IATA : LEY


EHLE - Lelystad

DERNIER METAR :
  • 150725Z AUTO 25023G36KT 9999 // FEW032 08/03 Q0991 RE// NOSIG

METARs EXPIRÉS :
  • 150655Z AUTO 24021KT 9999 // FEW031 07/04 Q0990 RE// NOSIG
  • 150625Z AUTO 24019G29KT 210V270 9999 // FEW023 SCT026 08/05 Q0989 RE// TEMPO 7000 -SHRA FEW025CB
  • 150555Z AUTO 24021KT 210V270 9999 // SCT020 SCT025 08/05 Q0988 RE// TEMPO 7000 -SHRA FEW025CB
  • 150525Z AUTO 24021G31KT 9999 // FEW018 BKN021 BKN026 09/06 Q0988 RE//
  • 150455Z AUTO 21021KT 180V240 9999 // FEW016 SCT022 BKN026 08/06 Q0987 RE//

TAF TAF EHLE
Valide du 15 à 06h jusqu'au 16 à 12h UTC


150516Z 1506/1612 24022G35KT 9999 BKN020
PROB40
TEMPO 1506/1509 25025G40KT -SHRA FEW025CB
BECMG 1510/1513 23020G30KT
PROB40
TEMPO 1513/1521 23022G35KT 4500 SHRA TSRAGS SCT015 SCT020CB
BECMG 1519/1522 20013KT



MET'MAP, la Météo Aéronautique d'un coup d'oeil ! - Copyright ORBIFLY Décembre 2007 - Disclaimer

ORBIFLY MET'MAP TEAM :

Programmation & Développement : Alexandra Zaïnal
Sur une idée originale de : Baudouin d'Aumeries
Assistance à la programmation : Marc-Olivier Méhu
Soutien technique & logistique : Manuel Goepfert

Contact : metmap@orbifly.com




SOURCES & CREDITS :

   NOAA